Home > Products > Valid Products > TAF

000
FTUS46 KPQR 072320
TAFAST
TAF
KAST 072320Z 0800/0824 09007KT P6SM SKC=



000
FTUS46 KPQR 072320
TAFTTD
TAF
KTTD 072320Z 0800/0824 09015G25KT P6SM SKC
     FM080800 09020G35KT P6SM SKC=



000
FTUS46 KPQR 072320
TAFPDX
TAF
KPDX 072320Z 0800/0824 10008KT P6SM FEW250
     FM080500 VRB05KT P6SM FEW250
     FM081000 32003KT 5SM BR SCT002
     FM081200 32003KT 1/2SM FG VV002
     FM081600 10008KT P6SM SKC=



000
FTUS46 KPQR 072320
TAFSLE
TAF
KSLE 072320Z 0800/0824 30005KT P6SM FEW012
     FM080400 VRB04KT 4SM BR FEW004
     FM080600 00000KT 1SM BR BKN004
     FM080800 00000KT 1/4SM FG VV001=



000
FTUS46 KPQR 072320
TAFONP
TAF
KONP 072320Z 0800/0824 09010KT P6SM SKC=



000
FTUS46 KPQR 072320
TAFHIO
TAF
KHIO 072320Z 0800/0824 07004KT P6SM SKC
     FM080600 VRB04KT 5SM BR FEW004
     FM080800 00000KT 1SM BR SCT002 BKN004
     FM081100 00000KT 1/4SM FG VV001=



000
FTUS46 KPQR 072320
TAFEUG
TAF
KEUG 072320Z 0800/0824 02006KT 2SM BR OVC004
     FM080100 02004KT 3SM BR BKN006
     FM080300 00000KT 2SM BR OVC004
     FM080500 00000KT 1SM BR OVC002
     FM080700 00000KT 1/4SM FG VV001=



000
FTUS46 KPQR 072055 AAB
TAFEUG
TAF AMD
KEUG 072055Z 0721/0818 02004KT 2SM BR BKN004 OVC008
     FM072230 01004KT 4SM BR SCT004 BKN008
     FM080000 36003KT 6SM BR SCT008
     FM080400 VRB03KT 4SM BR BKN006
     FM080500 00000KT 1SM BR BKN003
     FM080700 00000KT 1/4SM FG VV001=



000
FTUS46 KPQR 072052 AAA
TAFSLE
TAF AMD
KSLE 072052Z 0721/0818 35005KT P6SM FEW012
     FM080500 VRB04KT 4SM BR FEW004
     FM080700 00000KT 1SM BR BKN004
     FM080900 00000KT 1/4SM FG VV001=



000
FTUS46 KPQR 072052 AAA
TAFPDX
TAF AMD
KPDX 072052Z 0721/0818 VRB03KT P6SM FEW250
     FM072200 10008KT P6SM FEW250
     FM080500 VRB05KT P6SM FEW250
     FM081000 32003KT 5SM BR SCT002
     FM081200 32003KT 1/2SM FG VV002
     FM081600 10008KT P6SM SKC=



000
FTUS46 KPQR 072052 AAA
TAFPDX
TAF AMD
KPDX 072052Z 0721/0818 VRB03KT P6SM FEW250
     FM072200 10008KT P6SM FEW250
     FM080500 VRB05KT P6SM FEW250
     FM081000 32003KT 5SM BR SCT002
     FM081200 32003KT 1/2SM FG VV002
     FM081600 10008KT P6SM SKC=



000
FTUS46 KPQR 072052 AAA
TAFPDX
TAF AMD
KPDX 072052Z 0721/0818 VRB03KT P6SM FEW250
     FM072200 10008KT P6SM FEW250
     FM080500 VRB05KT P6SM FEW250
     FM081000 32003KT 5SM BR SCT002
     FM081200 32003KT 1/2SM FG VV002
     FM081600 10008KT P6SM SKC=



000
FTUS46 KPQR 071827 AAA
TAFEUG
TAF AMD
KEUG 071827Z 0718/0818 01004KT 1SM BR OVC004
     FM072000 02004KT 4SM BR BKN008 OVC012
     FM072130 01004KT P6SM SCT008 BKN012
     FM072300 36003KT P6SM FEW012
     FM080500 00000KT 4SM BR FEW004
     FM080700 00000KT 1SM BR BKN004
     FM080900 00000KT 1/4SM FG VV001=



000
FTUS46 KPQR 071827 AAA
TAFEUG
TAF AMD
KEUG 071827Z 0718/0818 01004KT 1SM BR OVC004
     FM072000 02004KT 4SM BR BKN008 OVC012
     FM072130 01004KT P6SM SCT008 BKN012
     FM072300 36003KT P6SM FEW012
     FM080500 00000KT 4SM BR FEW004
     FM080700 00000KT 1SM BR BKN004
     FM080900 00000KT 1/4SM FG VV001=



000
FTUS46 KPQR 071827 AAA
TAFEUG
TAF AMD
KEUG 071827Z 0718/0818 01004KT 1SM BR OVC004
     FM072000 02004KT 4SM BR BKN008 OVC012
     FM072130 01004KT P6SM SCT008 BKN012
     FM072300 36003KT P6SM FEW012
     FM080500 00000KT 4SM BR FEW004
     FM080700 00000KT 1SM BR BKN004
     FM080900 00000KT 1/4SM FG VV001=



000
FTUS46 KPQR 071720
TAFSLE
TAF
KSLE 071720Z 0718/0818 00000KT 2SM BR OVC004
     FM071900 02004KT P6SM BKN008 OVC012
     FM072000 01004KT P6SM SCT008 BKN012
     FM072100 36003KT P6SM FEW012
     FM080500 00000KT 4SM BR FEW004
     FM080700 00000KT 1SM BR BKN004
     FM080900 00000KT 1/4SM FG VV001=



000
FTUS46 KPQR 071720
TAFHIO
TAF
KHIO 071720Z 0718/0818 00000KT 4SM BR OVC015
     FM071830 00000KT P6SM SCT015 BKN025
     FM071930 07004KT P6SM SKC
     FM080600 VRB04KT 5SM BR FEW004
     FM080800 00000KT 1SM BR SCT002 BKN004
     FM081100 00000KT 1/4SM FG VV001=



000
FTUS46 KPQR 071720
TAFAST
TAF
KAST 071720Z 0718/0818 09007KT P6SM SKC=



000
FTUS46 KPQR 071720
TAFPDX
TAF
KPDX 071720Z 0718/0818 VRB03KT P6SM FEW025
     FM072100 11005KT P6SM SKC
     FM080000 10008KT P6SM SKC
     FM080600 VRB05KT P6SM SKC
     FM081000 32003KT 5SM BR SCT002
     FM081200 32003KT 1/2SM FG VV004=



000
FTUS46 KPQR 071720
TAFONP
TAF
KONP 071720Z 0718/0818 09010KT P6SM SKC=



000
FTUS46 KPQR 071720
TAFTTD
TAF
KTTD 071720Z 0718/0818 09015G25KT P6SM SKC
     FM080800 09020G35KT P6SM SKC=



000
FTUS46 KPQR 071720
TAFEUG
TAF
KEUG 071720Z 0718/0818 01004KT 2SM BR OVC004
     FM071900 02004KT P6SM BKN008 OVC012
     FM072100 01004KT P6SM SCT008 BKN012
     FM072200 36003KT P6SM FEW012
     FM080500 00000KT 4SM BR FEW004
     FM080700 00000KT 1SM BR BKN004
     FM080900 00000KT 1/4SM FG VV001=



000
FTUS46 KPQR 071659 AAC
TAFEUG
TAF AMD
KEUG 071659Z 0717/0812 01004KT 2SM BR OVC004
     FM071900 02004KT P6SM BKN008 OVC012
     FM072100 01004KT P6SM SCT008 BKN012
     FM072200 36003KT P6SM FEW012
     FM080500 00000KT 4SM BR FEW004
     FM080700 00000KT 1SM BR BKN004
     FM080900 00000KT 1/2SM FG VV002=



000
FTUS46 KPQR 071659 AAC
TAFEUG
TAF AMD
KEUG 071659Z 0717/0812 01004KT 2SM BR OVC004
     FM071900 02004KT P6SM BKN008 OVC012
     FM072100 01004KT P6SM SCT008 BKN012
     FM072200 36003KT P6SM FEW012
     FM080500 00000KT 4SM BR FEW004
     FM080700 00000KT 1SM BR BKN004
     FM080900 00000KT 1/2SM FG VV002=



000
FTUS46 KPQR 071659 AAC
TAFEUG
TAF AMD
KEUG 071659Z 0717/0812 01004KT 2SM BR OVC004
     FM071900 02004KT P6SM BKN008 OVC012
     FM072100 01004KT P6SM SCT008 BKN012
     FM072200 36003KT P6SM FEW012
     FM080500 00000KT 4SM BR FEW004
     FM080700 00000KT 1SM BR BKN004
     FM080900 00000KT 1/2SM FG VV002=



000
FTUS46 KPQR 071658 AAC
TAFSLE
TAF AMD
KSLE 071658Z 0717/0812 00000KT 2SM BR OVC004
     FM071900 02004KT P6SM BKN008 OVC012
     FM072000 01004KT P6SM SCT008 BKN012
     FM072100 36003KT P6SM FEW012
     FM080500 00000KT 4SM BR FEW004
     FM080700 00000KT 1SM BR BKN004
     FM080900 00000KT 1/2SM FG VV002=



000
FTUS46 KPQR 071658 AAC
TAFSLE
TAF AMD
KSLE 071658Z 0717/0812 00000KT 2SM BR OVC004
     FM071900 02004KT P6SM BKN008 OVC012
     FM072000 01004KT P6SM SCT008 BKN012
     FM072100 36003KT P6SM FEW012
     FM080500 00000KT 4SM BR FEW004
     FM080700 00000KT 1SM BR BKN004
     FM080900 00000KT 1/2SM FG VV002=



000
FTUS46 KPQR 071658 AAC
TAFSLE
TAF AMD
KSLE 071658Z 0717/0812 00000KT 2SM BR OVC004
     FM071900 02004KT P6SM BKN008 OVC012
     FM072000 01004KT P6SM SCT008 BKN012
     FM072100 36003KT P6SM FEW012
     FM080500 00000KT 4SM BR FEW004
     FM080700 00000KT 1SM BR BKN004
     FM080900 00000KT 1/2SM FG VV002=



000
FTUS46 KPQR 071656 AAB
TAFTTD
TAF AMD
KTTD 071656Z 0717/0812 09015G25KT P6SM SKC
     FM080800 09020G35KT P6SM SKC=



000
FTUS46 KPQR 071656 AAA
TAFONP
TAF AMD
KONP 071656Z 0717/0812 09010KT P6SM SKC=



000
FTUS46 KPQR 071656 AAB
TAFTTD
TAF AMD
KTTD 071656Z 0717/0812 09015G25KT P6SM SKC
     FM080800 09020G35KT P6SM SKC=



000
FTUS46 KPQR 071656 AAB
TAFTTD
TAF AMD
KTTD 071656Z 0717/0812 09015G25KT P6SM SKC
     FM080800 09020G35KT P6SM SKC=



000
FTUS46 KPQR 071656 AAA
TAFONP
TAF AMD
KONP 071656Z 0717/0812 09010KT P6SM SKC=



000
FTUS46 KPQR 071655 AAA
TAFAST
TAF AMD
KAST 071655Z 0717/0812 09007KT P6SM SKC=



000
FTUS46 KPQR 071655 AAA
TAFAST
TAF AMD
KAST 071655Z 0717/0812 09007KT P6SM SKC=



000
FTUS46 KPQR 071655 AAA
TAFAST
TAF AMD
KAST 071655Z 0717/0812 09007KT P6SM SKC=



000
FTUS46 KPQR 071654 AAB
TAFPDX
TAF AMD
KPDX 071654Z 0717/0812 VRB03KT P6SM FEW025
     FM072100 11005KT P6SM SKC
     FM080000 10008KT P6SM SKC
     FM080600 VRB05KT P6SM SKC
     FM081100 32003KT 5SM BR SCT002=



000
FTUS46 KPQR 071621 AAA
TAFTTD
TAF AMD
KTTD 071621Z 0716/0812 10010KT P6SM FEW025
     FM072000 09013G22KT P6SM SKC
     FM080600 09018G30KT P6SM SKC=



000
FTUS46 KPQR 071621 AAA
TAFTTD
TAF AMD
KTTD 071621Z 0716/0812 10010KT P6SM FEW025
     FM072000 09013G22KT P6SM SKC
     FM080600 09018G30KT P6SM SKC=



000
FTUS46 KPQR 071621 AAA
TAFTTD
TAF AMD
KTTD 071621Z 0716/0812 10010KT P6SM FEW025
     FM072000 09013G22KT P6SM SKC
     FM080600 09018G30KT P6SM SKC=



000
FTUS46 KPQR 071620 AAB
TAFEUG
TAF AMD
KEUG 071620Z 0716/0812 03005KT 2SM BR BKN004 OVC008
     FM071900 02005KT 3SM BR BKN008 OVC010
     FM072000 02004KT 6SM BR SCT008 BKN010
     FM080500 VRB03KT 2SM BR BKN008=



000
FTUS46 KPQR 071531 AAB
TAFSLE
TAF AMD
KSLE 071531Z 0716/0812 00000KT 4SM BR OVC006
     FM071900 02004KT P6SM BKN008 OVC012
     FM072100 01004KT P6SM SCT008 BKN012
     FM072300 36003KT P6SM SCT012
     FM080700 00000KT 4SM BR FEW004
     FM080900 00000KT 1SM BR BKN004
     FM081100 00000KT 1/2SM FG VV002=



000
FTUS46 KPQR 071528 AAA
TAFEUG
TAF AMD
KEUG 071528Z 0715/0812 04004KT 1/4SM FG VV001
     FM071800 04006KT 1/2SM FG VV002
     FM071930 04006KT 1SM BR BKN004 OVC008
     FM072100 02005KT 3SM BR BKN008 OVC010
     FM072300 02004KT 6SM BR SCT008 BKN010
     FM080500 VRB03KT 2SM BR BKN008=



000
FTUS46 KPQR 071528 AAA
TAFEUG
TAF AMD
KEUG 071528Z 0715/0812 04004KT 1/4SM FG VV001
     FM071800 04006KT 1/2SM FG VV002
     FM071930 04006KT 1SM BR BKN004 OVC008
     FM072100 02005KT 3SM BR BKN008 OVC010
     FM072300 02004KT 6SM BR SCT008 BKN010
     FM080500 VRB03KT 2SM BR BKN008=



000
FTUS46 KPQR 071508 AAA
TAFPDX
TAF AMD
KPDX 071508Z 0715/0812 VRB03KT P6SM OVC018
     FM072100 11005KT P6SM SCT025 BKN100
     FM080000 10008KT P6SM SCT120=



000
FTUS46 KPQR 071437 AAA
TAFHIO
TAF AMD
KHIO 071437Z 0715/0812 VRB03KT 4SM BR BKN004 OVC012
     FM071600 VRB03KT P6SM SCT005 OVC015
     FM071900 VRB03KT P6SM SCT020 BKN050
     FM072200 VRB03KT P6SM SCT050 SCT120
     FM080300 06004KT P6SM SCT120
     FM081000 00000KT 4SM BR SCT004=



000
FTUS46 KPQR 071436 AAA
TAFSLE
TAF AMD
KSLE 071436Z 0715/0812 VRB02KT P6SM OVC008
     FM071600 03004KT P6SM OVC012
     FM071800 02004KT P6SM SCT020 BKN100
     FM072300 36006KT P6SM SCT120
     FM080900 34003KT 4SM BR SCT120=



000
FTUS46 KPQR 071436 AAA
TAFSLE
TAF AMD
KSLE 071436Z 0715/0812 VRB02KT P6SM OVC008
     FM071600 03004KT P6SM OVC012
     FM071800 02004KT P6SM SCT020 BKN100
     FM072300 36006KT P6SM SCT120
     FM080900 34003KT 4SM BR SCT120=



000
FTUS46 KPQR 071436 AAA
TAFSLE
TAF AMD
KSLE 071436Z 0715/0812 VRB02KT P6SM OVC008
     FM071600 03004KT P6SM OVC012
     FM071800 02004KT P6SM SCT020 BKN100
     FM072300 36006KT P6SM SCT120
     FM080900 34003KT 4SM BR SCT120=



000
FTUS46 KPQR 071138
TAFONP
TAF
KONP 071138Z 0712/0812 09007KT 5SM BR OVC012
     FM071500 09007KT P6SM SCT015 BKN120
     FM072000 09008KT P6SM SCT120
     FM080400 09011KT P6SM SCT250=



000
FTUS46 KPQR 071138
TAFPDX
TAF
KPDX 071138Z 0712/0812 VRB03KT P6SM OVC018
     FM071800 11005KT P6SM SCT025 BKN100
     FM080000 10008KT P6SM SCT120=



000
FTUS46 KPQR 071138
TAFTTD
TAF
KTTD 071138Z 0712/0812 09008KT P6SM OVC025
     FM071400 09008KT P6SM OVC018
     FM071800 10012KT P6SM SCT020 BKN100
     FM072200 09014G22KT P6SM SCT120
     FM080600 09018G30KT P6SM SCT120=



000
FTUS46 KPQR 071138
TAFHIO
TAF
KHIO 071138Z 0712/0812 00000KT P6SM OVC015
     FM071900 VRB03KT P6SM SCT020 BKN050
     FM072200 VRB03KT P6SM SCT050 SCT120
     FM080300 06004KT P6SM SCT120
     FM081000 00000KT 4SM BR SCT004=



000
FTUS46 KPQR 071138
TAFAST
TAF
KAST 071138Z 0712/0812 09005KT P6SM OVC022
     FM071400 10005KT P6SM OVC018
     FM071900 09006KT P6SM SCT025 BKN120
     FM080000 08007KT P6SM SCT120=



000
FTUS46 KPQR 071138
TAFEUG
TAF
KEUG 071138Z 0712/0812 00000KT 1/2SM FG OVC002
     FM071500 VRB03KT 5SM BR OVC007
     FM071800 04006KT P6SM SCT007 BKN100
     FM072300 02004KT P6SM SCT120=



000
FTUS46 KPQR 071138
TAFSLE
TAF
KSLE 071138Z 0712/0812 VRB02KT P6SM OVC015
     FM071700 02004KT P6SM SCT020 BKN100
     FM072300 36006KT P6SM SCT120
     FM080900 34003KT 4SM BR SCT120=



000
FTUS46 KPQR 071138
TAFAST
TAF
KAST 071138Z 0712/0812 09005KT P6SM OVC022
     FM071400 10005KT P6SM OVC018
     FM071900 09006KT P6SM SCT025 BKN120
     FM080000 08007KT P6SM SCT120=



000
FTUS46 KPQR 071138
TAFHIO
TAF
KHIO 071138Z 0712/0812 00000KT P6SM OVC015
     FM071900 VRB03KT P6SM SCT020 BKN050
     FM072200 VRB03KT P6SM SCT050 SCT120
     FM080300 06004KT P6SM SCT120
     FM081000 00000KT 4SM BR SCT004=



000
FTUS46 KPQR 071138
TAFEUG
TAF
KEUG 071138Z 0712/0812 00000KT 1/2SM FG OVC002
     FM071500 VRB03KT 5SM BR OVC007
     FM071800 04006KT P6SM SCT007 BKN100
     FM072300 02004KT P6SM SCT120=



000
FTUS46 KPQR 071138
TAFONP
TAF
KONP 071138Z 0712/0812 09007KT 5SM BR OVC012
     FM071500 09007KT P6SM SCT015 BKN120
     FM072000 09008KT P6SM SCT120
     FM080400 09011KT P6SM SCT250=



000
FTUS46 KPQR 071138
TAFTTD
TAF
KTTD 071138Z 0712/0812 09008KT P6SM OVC025
     FM071400 09008KT P6SM OVC018
     FM071800 10012KT P6SM SCT020 BKN100
     FM072200 09014G22KT P6SM SCT120
     FM080600 09018G30KT P6SM SCT120=



000
FTUS46 KPQR 071138
TAFPDX
TAF
KPDX 071138Z 0712/0812 VRB03KT P6SM OVC018
     FM071800 11005KT P6SM SCT025 BKN100
     FM080000 10008KT P6SM SCT120=



000
FTUS46 KPQR 071138
TAFSLE
TAF
KSLE 071138Z 0712/0812 VRB02KT P6SM OVC015
     FM071700 02004KT P6SM SCT020 BKN100
     FM072300 36006KT P6SM SCT120
     FM080900 34003KT 4SM BR SCT120=



000
FTUS46 KPQR 070805 AAA
TAFTTD
TAF AMD
KTTD 070805Z 0708/0806 09008KT P6SM OVC025
     FM071800 10012KT P6SM SCT030 BKN100
     FM072200 09014G22KT P6SM SCT120=



000
FTUS46 KPQR 070739 AAA
TAFSLE
TAF AMD
KSLE 070739Z 0708/0806 VRB02KT P6SM BKN022 OVC035
     FM071800 02004KT P6SM SCT030 BKN090
     FM072300 36006KT P6SM SCT100 BKN200=



000
FTUS46 KPQR 070739 AAA
TAFSLE
TAF AMD
KSLE 070739Z 0708/0806 VRB02KT P6SM BKN022 OVC035
     FM071800 02004KT P6SM SCT030 BKN090
     FM072300 36006KT P6SM SCT100 BKN200=



000
FTUS46 KPQR 070739 AAA
TAFSLE
TAF AMD
KSLE 070739Z 0708/0806 VRB02KT P6SM BKN022 OVC035
     FM071800 02004KT P6SM SCT030 BKN090
     FM072300 36006KT P6SM SCT100 BKN200=



000
FTUS46 KPQR 070738 AAA
TAFHIO
TAF AMD
KHIO 070738Z 0708/0806 00000KT P6SM OVC025
     FM071900 VRB03KT P6SM SCT025 BKN050
     FM072200 VRB03KT P6SM SCT040 BKN120
     FM080300 06004KT P6SM SCT120=



000
FTUS46 KPQR 070738 AAA
TAFHIO
TAF AMD
KHIO 070738Z 0708/0806 00000KT P6SM OVC025
     FM071900 VRB03KT P6SM SCT025 BKN050
     FM072200 VRB03KT P6SM SCT040 BKN120
     FM080300 06004KT P6SM SCT120=



000
FTUS46 KPQR 070738 AAA
TAFHIO
TAF AMD
KHIO 070738Z 0708/0806 00000KT P6SM OVC025
     FM071900 VRB03KT P6SM SCT025 BKN050
     FM072200 VRB03KT P6SM SCT040 BKN120
     FM080300 06004KT P6SM SCT120=



000
FTUS46 KPQR 070737 AAA
TAFPDX
TAF AMD
KPDX 070737Z 0708/0806 VRB03KT P6SM BKN028 OVC040
     FM071200 09003KT P6SM OVC025
     FM071800 11005KT P6SM SCT030 BKN100
     FM080000 10008KT P6SM SCT120 BKN250=



000
FTUS46 KPQR 070530
TAFEUG
TAF
KEUG 070530Z 0706/0806 VRB03KT 5SM BR OVC009
     FM070800 09003KT 2SM BR BKN004 OVC008
     FM072000 04005KT P6SM SCT015
     FM072300 02006KT P6SM SCT120 BKN200=



000
FTUS46 KPQR 070530
TAFONP
TAF
KONP 070530Z 0706/0806 08005KT P6SM OVC019
     FM071500 09007KT P6SM SCT018 BKN120
     FM072000 09008KT P6SM SCT120
     FM080400 09011KT P6SM SCT250=



000
FTUS46 KPQR 070530
TAFPDX
TAF
KPDX 070530Z 0706/0806 28004KT P6SM BKN040 OVC100
     FM071000 VRB02KT P6SM BKN028 OVC080
     FM071200 VRB02KT P6SM OVC025
     FM071800 11005KT P6SM SCT030 BKN100
     FM080000 10008KT P6SM SCT120 BKN250=



000
FTUS46 KPQR 070530
TAFAST
TAF
KAST 070530Z 0706/0806 10005KT P6SM OVC100
     FM071000 09005KT P6SM OVC022
     FM071400 10005KT P6SM OVC018
     FM072000 09006KT P6SM SCT025 BKN120
     FM080000 08007KT P6SM SCT120 BKN250=



000
FTUS46 KPQR 070530
TAFSLE
TAF
KSLE 070530Z 0706/0806 VRB03KT P6SM SCT025 OVC035
     FM071200 VRB02KT P6SM BKN025 OVC035
     FM071800 02004KT P6SM SCT030 BKN090
     FM072300 36006KT P6SM SCT100 BKN200=



000
FTUS46 KPQR 070530
TAFHIO
TAF
KHIO 070530Z 0706/0806 00000KT P6SM BKN040 OVC120
     FM071300 00000KT P6SM BKN022 OVC035
     FM071800 VRB03KT P6SM SCT025 BKN050
     FM072100 VRB03KT P6SM SCT040 BKN120
     FM080300 06004KT P6SM SCT120=



000
FTUS46 KPQR 070530
TAFTTD
TAF
KTTD 070530Z 0706/0806 09005KT P6SM BKN040 OVC100
     FM071000 09005KT P6SM BKN028 OVC080
     FM071200 09006KT P6SM OVC025
     FM071700 10008KT P6SM SCT030 BKN100
     FM072200 09014G22KT P6SM SCT120=



000
FTUS46 KPQR 070530
TAFPDX
TAF
KPDX 070530Z 0706/0806 28004KT P6SM BKN040 OVC100
     FM071000 VRB02KT P6SM BKN028 OVC080
     FM071200 VRB02KT P6SM OVC025
     FM071800 11005KT P6SM SCT030 BKN100
     FM080000 10008KT P6SM SCT120 BKN250=



000
FTUS46 KPQR 070530
TAFEUG
TAF
KEUG 070530Z 0706/0806 VRB03KT 5SM BR OVC009
     FM070800 09003KT 2SM BR BKN004 OVC008
     FM072000 04005KT P6SM SCT015
     FM072300 02006KT P6SM SCT120 BKN200=



000
FTUS46 KPQR 070530
TAFONP
TAF
KONP 070530Z 0706/0806 08005KT P6SM OVC019
     FM071500 09007KT P6SM SCT018 BKN120
     FM072000 09008KT P6SM SCT120
     FM080400 09011KT P6SM SCT250=



000
FTUS46 KPQR 070530
TAFAST
TAF
KAST 070530Z 0706/0806 10005KT P6SM OVC100
     FM071000 09005KT P6SM OVC022
     FM071400 10005KT P6SM OVC018
     FM072000 09006KT P6SM SCT025 BKN120
     FM080000 08007KT P6SM SCT120 BKN250=



000
FTUS46 KPQR 070530
TAFTTD
TAF
KTTD 070530Z 0706/0806 09005KT P6SM BKN040 OVC100
     FM071000 09005KT P6SM BKN028 OVC080
     FM071200 09006KT P6SM OVC025
     FM071700 10008KT P6SM SCT030 BKN100
     FM072200 09014G22KT P6SM SCT120=



000
FTUS46 KPQR 070530
TAFSLE
TAF
KSLE 070530Z 0706/0806 VRB03KT P6SM SCT025 OVC035
     FM071200 VRB02KT P6SM BKN025 OVC035
     FM071800 02004KT P6SM SCT030 BKN090
     FM072300 36006KT P6SM SCT100 BKN200=



000
FTUS46 KPQR 070530
TAFHIO
TAF
KHIO 070530Z 0706/0806 00000KT P6SM BKN040 OVC120
     FM071300 00000KT P6SM BKN022 OVC035
     FM071800 VRB03KT P6SM SCT025 BKN050
     FM072100 VRB03KT P6SM SCT040 BKN120
     FM080300 06004KT P6SM SCT120=



000
FTUS46 KPQR 070530
TAFTTD
TAF
KTTD 070530Z 0706/0806 09005KT P6SM BKN040 OVC100
     FM071000 09005KT P6SM BKN028 OVC080
     FM071200 09006KT P6SM OVC025
     FM071700 10008KT P6SM SCT030 BKN100
     FM072200 09014G22KT P6SM SCT120=



000
FTUS46 KPQR 070530
TAFONP
TAF
KONP 070530Z 0706/0806 08005KT P6SM OVC019
     FM071500 09007KT P6SM SCT018 BKN120
     FM072000 09008KT P6SM SCT120
     FM080400 09011KT P6SM SCT250=



000
FTUS46 KPQR 070530
TAFSLE
TAF
KSLE 070530Z 0706/0806 VRB03KT P6SM SCT025 OVC035
     FM071200 VRB02KT P6SM BKN025 OVC035
     FM071800 02004KT P6SM SCT030 BKN090
     FM072300 36006KT P6SM SCT100 BKN200=



000
FTUS46 KPQR 070530
TAFPDX
TAF
KPDX 070530Z 0706/0806 28004KT P6SM BKN040 OVC100
     FM071000 VRB02KT P6SM BKN028 OVC080
     FM071200 VRB02KT P6SM OVC025
     FM071800 11005KT P6SM SCT030 BKN100
     FM080000 10008KT P6SM SCT120 BKN250=



000
FTUS46 KPQR 070530
TAFHIO
TAF
KHIO 070530Z 0706/0806 00000KT P6SM BKN040 OVC120
     FM071300 00000KT P6SM BKN022 OVC035
     FM071800 VRB03KT P6SM SCT025 BKN050
     FM072100 VRB03KT P6SM SCT040 BKN120
     FM080300 06004KT P6SM SCT120=



000
FTUS46 KPQR 070530
TAFAST
TAF
KAST 070530Z 0706/0806 10005KT P6SM OVC100
     FM071000 09005KT P6SM OVC022
     FM071400 10005KT P6SM OVC018
     FM072000 09006KT P6SM SCT025 BKN120
     FM080000 08007KT P6SM SCT120 BKN250=



000
FTUS46 KPQR 070530
TAFEUG
TAF
KEUG 070530Z 0706/0806 VRB03KT 5SM BR OVC009
     FM070800 09003KT 2SM BR BKN004 OVC008
     FM072000 04005KT P6SM SCT015
     FM072300 02006KT P6SM SCT120 BKN200=



000
FTUS46 KPQR 070427 AAA
TAFSLE
TAF AMD
KSLE 070427Z 0704/0724 VRB03KT P6SM OVC028
     FM071200 10004KT P6SM BKN025 OVC050
     FM071800 10006KT P6SM FEW030 SCT050=



000
FTUS46 KPQR 070426 AAA
TAFONP
TAF AMD
KONP 070426Z 0704/0724 08005KT P6SM OVC019
     FM071500 09007KT P6SM SCT019 BKN120=



000
FTUS46 KPQR 070426 AAA
TAFONP
TAF AMD
KONP 070426Z 0704/0724 08005KT P6SM OVC019
     FM071500 09007KT P6SM SCT019 BKN120=



000
FTUS46 KPQR 070259 AAA
TAFPDX
TAF AMD
KPDX 070259Z 0703/0724 28004KT P6SM OVC110
     FM070900 10003KT P6SM SCT030 OVC050
     FM071200 10004KT P6SM BKN030 OVC050
     FM071800 10006KT P6SM FEW030 SCT050=



000
FTUS46 KPQR 070102 AAA
TAFEUG
TAF AMD
KEUG 070102Z 0701/0724 36005KT P6SM OVC012
     FM070500 VRB03KT 5SM BR OVC008
     FM070800 09003KT 2SM BR BKN003 OVC008
     FM072000 03005KT P6SM SCT030=



000
FTUS46 KPQR 070102 AAA
TAFEUG
TAF AMD
KEUG 070102Z 0701/0724 36005KT P6SM OVC012
     FM070500 VRB03KT 5SM BR OVC008
     FM070800 09003KT 2SM BR BKN003 OVC008
     FM072000 03005KT P6SM SCT030=



000
FTUS46 KPQR 070102 AAA
TAFEUG
TAF AMD
KEUG 070102Z 0701/0724 36005KT P6SM OVC012
     FM070500 VRB03KT 5SM BR OVC008
     FM070800 09003KT 2SM BR BKN003 OVC008
     FM072000 03005KT P6SM SCT030=



000
FTUS46 KPQR 062320
TAFAST
TAF
KAST 062320Z 0700/0724 10005KT P6SM SCT050 OVC100
     FM070900 10004KT 6SM BR VCSH BKN050 OVC100
     FM071200 10004KT P6SM BKN030 OVC050
     FM071800 10006KT P6SM FEW030 SCT050=



000
FTUS46 KPQR 062320
TAFEUG
TAF
KEUG 062320Z 0700/0724 36005KT P6SM SCT010 OVC150
     FM070200 VRB03KT P6SM SCT010 SCT050 OVC100
     FM070900 10003KT P6SM SCT010 BKN030 OVC050
     FM071200 10004KT P6SM BKN030 OVC050
     FM071800 10006KT P6SM FEW030 SCT050=



000
FTUS46 KPQR 062320
TAFHIO
TAF
KHIO 062320Z 0700/0724 00000KT P6SM OVC150
     FM070200 00000KT P6SM SCT050 OVC100
     FM070900 00000KT P6SM BKN030 OVC050
     FM071800 08006KT P6SM FEW030 SCT050=



000
FTUS46 KPQR 062320
TAFTTD
TAF
KTTD 062320Z 0700/0724 00000KT P6SM OVC150
     FM070200 VRB03KT P6SM SCT050 OVC100
     FM070900 VRB04KT P6SM SCT030 OVC050
     FM071200 VRB05KT P6SM BKN030 OVC050
     FM071600 10007KT P6SM FEW030 SCT050=



000
FTUS46 KPQR 062320
TAFPDX
TAF
KPDX 062320Z 0700/0724 VRB03KT P6SM FEW050 OVC150
     FM070200 VRB03KT P6SM SCT050 OVC100
     FM070900 10003KT P6SM SCT030 OVC050
     FM071200 10004KT P6SM BKN030 OVC050
     FM071800 10006KT P6SM FEW030 SCT050=



000
FTUS46 KPQR 062320
TAFAST
TAF
KAST 062320Z 0700/0724 10005KT P6SM SCT050 OVC100
     FM070900 10004KT 6SM BR VCSH BKN050 OVC100
     FM071200 10004KT P6SM BKN030 OVC050
     FM071800 10006KT P6SM FEW030 SCT050=



000
FTUS46 KPQR 062320
TAFSLE
TAF
KSLE 062320Z 0700/0724 36005KT P6SM OVC150
     FM070200 VRB03KT P6SM SCT050 OVC100
     FM070900 VRB03KT P6SM SCT030 OVC050
     FM071200 10004KT P6SM BKN030 OVC050
     FM071800 10006KT P6SM FEW030 SCT050=



000
FTUS46 KPQR 062320
TAFEUG
TAF
KEUG 062320Z 0700/0724 36005KT P6SM SCT010 OVC150
     FM070200 VRB03KT P6SM SCT010 SCT050 OVC100
     FM070900 10003KT P6SM SCT010 BKN030 OVC050
     FM071200 10004KT P6SM BKN030 OVC050
     FM071800 10006KT P6SM FEW030 SCT050=



000
FTUS46 KPQR 062320
TAFTTD
TAF
KTTD 062320Z 0700/0724 00000KT P6SM OVC150
     FM070200 VRB03KT P6SM SCT050 OVC100
     FM070900 VRB04KT P6SM SCT030 OVC050
     FM071200 VRB05KT P6SM BKN030 OVC050
     FM071600 10007KT P6SM FEW030 SCT050=



000
FTUS46 KPQR 062320
TAFONP
TAF
KONP 062320Z 0700/0724 08005KT P6SM SCT050 OVC100
     FM070900 09004KT 6SM BR VCSH BKN050 OVC100=



000
FTUS46 KPQR 062320
TAFSLE
TAF
KSLE 062320Z 0700/0724 36005KT P6SM OVC150
     FM070200 VRB03KT P6SM SCT050 OVC100
     FM070900 VRB03KT P6SM SCT030 OVC050
     FM071200 10004KT P6SM BKN030 OVC050
     FM071800 10006KT P6SM FEW030 SCT050=



000
FTUS46 KPQR 062320
TAFPDX
TAF
KPDX 062320Z 0700/0724 VRB03KT P6SM FEW050 OVC150
     FM070200 VRB03KT P6SM SCT050 OVC100
     FM070900 10003KT P6SM SCT030 OVC050
     FM071200 10004KT P6SM BKN030 OVC050
     FM071800 10006KT P6SM FEW030 SCT050=



000
FTUS46 KPQR 062320
TAFAST
TAF
KAST 062320Z 0700/0724 10005KT P6SM SCT050 OVC100
     FM070900 10004KT 6SM BR VCSH BKN050 OVC100
     FM071200 10004KT P6SM BKN030 OVC050
     FM071800 10006KT P6SM FEW030 SCT050=



000
FTUS46 KPQR 062320
TAFPDX
TAF
KPDX 062320Z 0700/0724 VRB03KT P6SM FEW050 OVC150
     FM070200 VRB03KT P6SM SCT050 OVC100
     FM070900 10003KT P6SM SCT030 OVC050
     FM071200 10004KT P6SM BKN030 OVC050
     FM071800 10006KT P6SM FEW030 SCT050=



000
FTUS46 KPQR 062320
TAFTTD
TAF
KTTD 062320Z 0700/0724 00000KT P6SM OVC150
     FM070200 VRB03KT P6SM SCT050 OVC100
     FM070900 VRB04KT P6SM SCT030 OVC050
     FM071200 VRB05KT P6SM BKN030 OVC050
     FM071600 10007KT P6SM FEW030 SCT050=



000
FTUS46 KPQR 062320
TAFHIO
TAF
KHIO 062320Z 0700/0724 00000KT P6SM OVC150
     FM070200 00000KT P6SM SCT050 OVC100
     FM070900 00000KT P6SM BKN030 OVC050
     FM071800 08006KT P6SM FEW030 SCT050=



000
FTUS46 KPQR 062320
TAFEUG
TAF
KEUG 062320Z 0700/0724 36005KT P6SM SCT010 OVC150
     FM070200 VRB03KT P6SM SCT010 SCT050 OVC100
     FM070900 10003KT P6SM SCT010 BKN030 OVC050
     FM071200 10004KT P6SM BKN030 OVC050
     FM071800 10006KT P6SM FEW030 SCT050=



000
FTUS46 KPQR 062320
TAFSLE
TAF
KSLE 062320Z 0700/0724 36005KT P6SM OVC150
     FM070200 VRB03KT P6SM SCT050 OVC100
     FM070900 VRB03KT P6SM SCT030 OVC050
     FM071200 10004KT P6SM BKN030 OVC050
     FM071800 10006KT P6SM FEW030 SCT050=



000
FTUS46 KPQR 062320
TAFONP
TAF
KONP 062320Z 0700/0724 08005KT P6SM SCT050 OVC100
     FM070900 09004KT 6SM BR VCSH BKN050 OVC100=



000
FTUS46 KPQR 062320
TAFONP
TAF
KONP 062320Z 0700/0724 08005KT P6SM SCT050 OVC100
     FM070900 09004KT 6SM BR VCSH BKN050 OVC100=



000
FTUS46 KPQR 062320
TAFHIO
TAF
KHIO 062320Z 0700/0724 00000KT P6SM OVC150
     FM070200 00000KT P6SM SCT050 OVC100
     FM070900 00000KT P6SM BKN030 OVC050
     FM071800 08006KT P6SM FEW030 SCT050=



000
FTUS46 KPQR 062050 AAA
TAFPDX
TAF AMD
KPDX 062050Z 0621/0718 VRB03KT P6SM FEW050 OVC150
     FM070200 VRB03KT P6SM SCT050 OVC100
     FM070900 10003KT P6SM SCT030 OVC050=



000
FTUS46 KPQR 061736
TAFEUG
TAF
KEUG 061736Z 0618/0718 36005KT 2SM BR OVC002
     FM061930 36005KT 5SM BR BKN004 OVC008
     FM062100 36005KT P6SM BKN008 OVC010
     FM062300 36005KT P6SM SCT010 OVC150
     FM070200 VRB03KT P6SM SCT010 SCT050 OVC100
     FM070900 10003KT P6SM SCT010 BKN030 OVC050=



000
FTUS46 KPQR 061736
TAFAST
TAF
KAST 061736Z 0618/0718 10004KT P6SM VCSH BKN035 OVC050
     FM070000 10005KT P6SM SCT050 OVC100
     FM070900 10004KT 6SM BR VCSH BKN050 OVC100=



000
FTUS46 KPQR 061736
TAFONP
TAF
KONP 061736Z 0618/0718 08005KT P6SM FEW050 OVC150
     FM070000 08005KT P6SM SCT050 OVC100
     FM070900 09004KT 6SM BR VCSH BKN050 OVC100=



000
FTUS46 KPQR 061736
TAFSLE
TAF
KSLE 061736Z 0618/0718 VRB03KT P6SM OVC150
     FM070200 VRB03KT P6SM SCT050 OVC100
     FM070900 VRB03KT P6SM SCT030 OVC050=



000
FTUS46 KPQR 061736
TAFTTD
TAF
KTTD 061736Z 0618/0718 00000KT P6SM OVC150
     FM070200 VRB03KT P6SM SCT050 OVC100
     FM070900 10005KT P6SM SCT030 OVC050=



000
FTUS46 KPQR 061736
TAFHIO
TAF
KHIO 061736Z 0618/0718 00000KT P6SM OVC150
     FM070200 00000KT P6SM SCT050 OVC100
     FM070900 00000KT P6SM BKN030 OVC050=



000
FTUS46 KPQR 061736
TAFPDX
TAF
KPDX 061736Z 0618/0718 00000KT P6SM OVC150
     FM070200 VRB03KT P6SM SCT050 OVC100
     FM070900 10003KT P6SM SCT030 OVC050=



000
FTUS46 KPQR 061736 AAC
TAFEUG
TAF AMD
KEUG 061736Z 0618/0712 36005KT 2SM BR OVC002
     FM061930 36005KT 5SM BR BKN004 OVC008
     FM062100 36005KT P6SM BKN008 OVC010
     FM062300 36005KT P6SM SCT010 OVC150
     FM070200 VRB03KT P6SM SCT010 SCT050 OVC100
     FM070900 10003KT P6SM SCT010 BKN030 OVC050=



000
FTUS46 KPQR 061731 AAB
TAFSLE
TAF AMD
KSLE 061731Z 0618/0712 VRB03KT P6SM OVC150
     FM070200 VRB03KT P6SM SCT050 OVC100
     FM070900 VRB03KT P6SM SCT030 OVC050=



000
FTUS46 KPQR 061730 AAA
TAFHIO
TAF AMD
KHIO 061730Z 0618/0712 00000KT P6SM OVC150
     FM070200 00000KT P6SM SCT050 OVC100
     FM070900 00000KT P6SM BKN030 OVC050=



000
FTUS46 KPQR 061729 AAB
TAFPDX
TAF AMD
KPDX 061729Z 0617/0712 00000KT P6SM OVC150
     FM070200 VRB03KT P6SM SCT050 OVC100
     FM070900 10003KT P6SM SCT030 OVC050=



000
FTUS46 KPQR 061729 AAA
TAFTTD
TAF AMD
KTTD 061729Z 0617/0712 00000KT P6SM OVC150
     FM070200 VRB03KT P6SM SCT050 OVC100
     FM070900 10005KT P6SM SCT030 OVC050=



000
FTUS46 KPQR 061722 AAA
TAFONP
TAF AMD
KONP 061722Z 0617/0712 08005KT P6SM FEW050 OVC150
     FM070000 08005KT P6SM SCT050 OVC100
     FM070900 09004KT 6SM BR VCSH BKN050 OVC100=



000
FTUS46 KPQR 061722 AAA
TAFONP
TAF AMD
KONP 061722Z 0617/0712 08005KT P6SM FEW050 OVC150
     FM070000 08005KT P6SM SCT050 OVC100
     FM070900 09004KT 6SM BR VCSH BKN050 OVC100=



000
FTUS46 KPQR 061722 AAA
TAFONP
TAF AMD
KONP 061722Z 0617/0712 08005KT P6SM FEW050 OVC150
     FM070000 08005KT P6SM SCT050 OVC100
     FM070900 09004KT 6SM BR VCSH BKN050 OVC100=



000
FTUS46 KPQR 061720 AAA
TAFAST
TAF AMD
KAST 061720Z 0617/0712 10004KT P6SM VCSH BKN035 OVC050
     FM070000 10005KT P6SM SCT050 OVC100
     FM070900 10004KT 6SM BR VCSH BKN050 OVC100=



000
FTUS46 KPQR 061659 AAB
TAFEUG
TAF AMD
KEUG 061659Z 0617/0712 36003KT 2SM BR BKN002
     FM061900 VRB04KT P6SM SCT010 SCT060
     FM070200 09003KT P6SM SCT060=



000
FTUS46 KPQR 061659 AAB
TAFEUG
TAF AMD
KEUG 061659Z 0617/0712 36003KT 2SM BR BKN002
     FM061900 VRB04KT P6SM SCT010 SCT060
     FM070200 09003KT P6SM SCT060=



000
FTUS46 KPQR 061659 AAB
TAFEUG
TAF AMD
KEUG 061659Z 0617/0712 36003KT 2SM BR BKN002
     FM061900 VRB04KT P6SM SCT010 SCT060
     FM070200 09003KT P6SM SCT060=



000
FTUS46 KPQR 061506 AAA
TAFPDX
TAF AMD
KPDX 061506Z 0615/0712 21005KT P6SM SCT060
     FM070200 12004KT P6SM SCT100=



000
FTUS46 KPQR 061506 AAA
TAFPDX
TAF AMD
KPDX 061506Z 0615/0712 21005KT P6SM SCT060
     FM070200 12004KT P6SM SCT100=



000
FTUS46 KPQR 061506 AAA
TAFPDX
TAF AMD
KPDX 061506Z 0615/0712 21005KT P6SM SCT060
     FM070200 12004KT P6SM SCT100=



000
FTUS46 KPQR 061349 AAA
TAFSLE
TAF AMD
KSLE 061349Z 0614/0712 19005KT 1/2SM FG OVC002
     FM061500 19005KT 4SM BR SCT003 SCT050
     FM061600 18004KT P6SM SCT050
     FM070200 VRB03KT P6SM SCT100
     FM070900 VRB03KT 5SM BR SCT005=



000
FTUS46 KPQR 061347 AAA
TAFEUG
TAF AMD
KEUG 061347Z 0614/0712 36003KT P6SM SCT001 BKN040
     FM061700 VRB04KT P6SM SCT010 SCT060
     FM070200 09003KT P6SM SCT060=



000
FTUS46 KPQR 061347 AAA
TAFEUG
TAF AMD
KEUG 061347Z 0614/0712 36003KT P6SM SCT001 BKN040
     FM061700 VRB04KT P6SM SCT010 SCT060
     FM070200 09003KT P6SM SCT060=



000
FTUS46 KPQR 061347 AAA
TAFEUG
TAF AMD
KEUG 061347Z 0614/0712 36003KT P6SM SCT001 BKN040
     FM061700 VRB04KT P6SM SCT010 SCT060
     FM070200 09003KT P6SM SCT060=



000
FTUS46 KPQR 061120
TAFHIO
TAF
KHIO 061120Z 0612/0712 18006KT P6SM SCT050
     FM061300 00000KT 6SM BR SCT007 SCT050
     FM061700 VRB03KT P6SM SCT050
     FM070200 VRB03KT P6SM SCT100
     FM071100 00000KT 4SM BR BKN005=



000
FTUS46 KPQR 061120
TAFAST
TAF
KAST 061120Z 0612/0712 24010KT P6SM VCSH SCT030 BKN040
     FM061400 24006KT P6SM VCSH SCT025 BKN045
     FM061900 VRB04KT P6SM BKN050
     FM070000 11005KT P6SM SCT100=



000
FTUS46 KPQR 061120
TAFEUG
TAF
KEUG 061120Z 0612/0712 VRB03KT 1SM BR OVC003
     FM061700 VRB03KT 4SM BR BKN006
     FM061900 VRB04KT P6SM SCT010 SCT060
     FM070200 09003KT P6SM SCT060=



000
FTUS46 KPQR 061120
TAFPDX
TAF
KPDX 061120Z 0612/0712 19010KT P6SM SCT060
     FM061500 21005KT P6SM SCT060
     FM070200 12004KT P6SM SCT100=



000
FTUS46 KPQR 061120
TAFPDX
TAF
KPDX 061120Z 0612/0712 19010KT P6SM SCT060
     FM061500 21005KT P6SM SCT060
     FM070200 12004KT P6SM SCT100=



000
FTUS46 KPQR 061120
TAFAST
TAF
KAST 061120Z 0612/0712 24010KT P6SM VCSH SCT030 BKN040
     FM061400 24006KT P6SM VCSH SCT025 BKN045
     FM061900 VRB04KT P6SM BKN050
     FM070000 11005KT P6SM SCT100=



000
FTUS46 KPQR 061120
TAFSLE
TAF
KSLE 061120Z 0612/0712 19005KT P6SM SCT060
     FM070200 VRB03KT P6SM SCT100
     FM070900 VRB03KT 5SM BR SCT005=



000
FTUS46 KPQR 061120
TAFHIO
TAF
KHIO 061120Z 0612/0712 18006KT P6SM SCT050
     FM061300 00000KT 6SM BR SCT007 SCT050
     FM061700 VRB03KT P6SM SCT050
     FM070200 VRB03KT P6SM SCT100
     FM071100 00000KT 4SM BR BKN005=



000
FTUS46 KPQR 061120
TAFONP
TAF
KONP 061120Z 0612/0712 15003KT P6SM SCT030 BKN040
     FM061800 10005KT P6SM SCT040
     FM070200 12010KT P6SM SCT100=



000
FTUS46 KPQR 061120
TAFSLE
TAF
KSLE 061120Z 0612/0712 19005KT P6SM SCT060
     FM070200 VRB03KT P6SM SCT100
     FM070900 VRB03KT 5SM BR SCT005=



000
FTUS46 KPQR 061120
TAFAST
TAF
KAST 061120Z 0612/0712 24010KT P6SM VCSH SCT030 BKN040
     FM061400 24006KT P6SM VCSH SCT025 BKN045
     FM061900 VRB04KT P6SM BKN050
     FM070000 11005KT P6SM SCT100=



000
FTUS46 KPQR 061120
TAFSLE
TAF
KSLE 061120Z 0612/0712 19005KT P6SM SCT060
     FM070200 VRB03KT P6SM SCT100
     FM070900 VRB03KT 5SM BR SCT005=



000
FTUS46 KPQR 061120
TAFONP
TAF
KONP 061120Z 0612/0712 15003KT P6SM SCT030 BKN040
     FM061800 10005KT P6SM SCT040
     FM070200 12010KT P6SM SCT100=



000
FTUS46 KPQR 061120
TAFTTD
TAF
KTTD 061120Z 0612/0712 22007KT P6SM SCT050
     FM061700 20003KT P6SM SCT050
     FM070300 10005KT P6SM SCT100
     FM070900 09012KT P6SM SCT100=



000
FTUS46 KPQR 061120
TAFONP
TAF
KONP 061120Z 0612/0712 15003KT P6SM SCT030 BKN040
     FM061800 10005KT P6SM SCT040
     FM070200 12010KT P6SM SCT100=



000
FTUS46 KPQR 061120
TAFHIO
TAF
KHIO 061120Z 0612/0712 18006KT P6SM SCT050
     FM061300 00000KT 6SM BR SCT007 SCT050
     FM061700 VRB03KT P6SM SCT050
     FM070200 VRB03KT P6SM SCT100
     FM071100 00000KT 4SM BR BKN005=



000
FTUS46 KPQR 061120
TAFEUG
TAF
KEUG 061120Z 0612/0712 VRB03KT 1SM BR OVC003
     FM061700 VRB03KT 4SM BR BKN006
     FM061900 VRB04KT P6SM SCT010 SCT060
     FM070200 09003KT P6SM SCT060=



000
FTUS46 KPQR 061120
TAFPDX
TAF
KPDX 061120Z 0612/0712 19010KT P6SM SCT060
     FM061500 21005KT P6SM SCT060
     FM070200 12004KT P6SM SCT100=



000
FTUS46 KPQR 061120
TAFTTD
TAF
KTTD 061120Z 0612/0712 22007KT P6SM SCT050
     FM061700 20003KT P6SM SCT050
     FM070300 10005KT P6SM SCT100
     FM070900 09012KT P6SM SCT100=



000
FTUS46 KPQR 061120
TAFEUG
TAF
KEUG 061120Z 0612/0712 VRB03KT 1SM BR OVC003
     FM061700 VRB03KT 4SM BR BKN006
     FM061900 VRB04KT P6SM SCT010 SCT060
     FM070200 09003KT P6SM SCT060=



000
FTUS46 KPQR 061120
TAFTTD
TAF
KTTD 061120Z 0612/0712 22007KT P6SM SCT050
     FM061700 20003KT P6SM SCT050
     FM070300 10005KT P6SM SCT100
     FM070900 09012KT P6SM SCT100=



000
FTUS46 KPQR 060911 AAA
TAFPDX
TAF AMD
KPDX 060911Z 0609/0706 19008KT P6SM VCSH SCT040 BKN060
     FM061400 VRB03KT P6SM BKN060
     FM070200 VRB03KT P6SM SCT060=



000
FTUS46 KPQR 060911 AAA
TAFPDX
TAF AMD
KPDX 060911Z 0609/0706 19008KT P6SM VCSH SCT040 BKN060
     FM061400 VRB03KT P6SM BKN060
     FM070200 VRB03KT P6SM SCT060=



000
FTUS46 KPQR 060911 AAA
TAFPDX
TAF AMD
KPDX 060911Z 0609/0706 19008KT P6SM VCSH SCT040 BKN060
     FM061400 VRB03KT P6SM BKN060
     FM070200 VRB03KT P6SM SCT060=



000
FTUS46 KPQR 060530
TAFPDX
TAF
KPDX 060530Z 0606/0706 20008KT P6SM -SHRA SCT025 BKN040 BKN080
     FM061400 VRB03KT P6SM SCT020 BKN035 OVC050
     FM061900 VRB03KT P6SM SCT030 BKN060
     FM070200 VRB03KT P6SM SCT060=



000
FTUS46 KPQR 060530
TAFEUG
TAF
KEUG 060530Z 0606/0706 23005KT P6SM -SHRA SCT025 OVC040
      TEMPO 0606/0607 BKN025 OVC040
     FM061300 VRB03KT 2SM BR BKN008 OVC035
     FM061700 VRB03KT P6SM FEW012 BKN035
     FM062000 VRB04KT P6SM SCT035 BKN060
     FM070200 VRB03KT P6SM SCT050=



000
FTUS46 KPQR 060530
TAFONP
TAF
KONP 060530Z 0606/0706 25010KT P6SM SCT025 BKN050
     FM061200 VRB03KT 5SM BR SCT015 BKN035
     FM061800 10005KT P6SM SCT030
     FM070200 09008KT P6SM SCT250=



000
FTUS46 KPQR 060530
TAFAST
TAF
KAST 060530Z 0606/0706 24010KT P6SM -SHRA SCT025 BKN035 BKN060
     FM061400 24006KT P6SM VCSH SCT025 BKN045
     FM061900 VRB04KT P6SM BKN050
     FM070000 11005KT P6SM SCT050=



000
FTUS46 KPQR 060530
TAFSLE
TAF
KSLE 060530Z 0606/0706 19005KT P6SM -SHRA SCT035 OVC060
     FM061400 18004KT P6SM SCT015 OVC035
     FM061900 VRB03KT P6SM SCT020 BKN040 OVC060
     FM070200 14003KT P6SM SCT050=



000
FTUS46 KPQR 060530
TAFTTD
TAF
KTTD 060530Z 0606/0706 24007KT P6SM -SHRA SCT025 BKN040 OVC070
     FM061400 VRB03KT P6SM VCSH SCT015 OVC035
     FM061700 VRB03KT P6SM SCT020 BKN040
     FM062000 VRB03KT P6SM SCT030 BKN050
     FM070300 10005KT P6SM SCT050=



000
FTUS46 KPQR 060530
TAFHIO
TAF
KHIO 060530Z 0606/0706 22004KT P6SM -SHRA SCT040 OVC080
     FM061200 00000KT 5SM BR VCSH SCT012 BKN035
     FM061800 VRB03KT P6SM SCT020 BKN040
     FM070200 VRB03KT P6SM SCT040=



000
FTUS46 KPQR 060401 AAA
TAFHIO
TAF AMD
KHIO 060401Z 0604/0624 22004KT P6SM -SHRA SCT050 OVC080
     FM061200 VRB03KT 2SM BR VCSH FEW004 BKN008 BKN025
     FM061900 VRB03KT 6SM BR FEW008 SCT015=



000
FTUS46 KPQR 060324 AAB
TAFONP
TAF AMD
KONP 060324Z 0603/0624 22015G25KT 3SM -SHRA BR BKN004 OVC015
     FM060400 22013KT 5SM -SHRA BR SCT012 BKN025 OVC040
     FM060500 23010KT P6SM -SHRA SCT025 BKN040
     FM060800 23005KT P6SM -SHRA SCT025 BKN040
     FM061200 10003KT 3SM BR VCSH FEW002 BKN025=



000
FTUS46 KPQR 060324 AAB
TAFONP
TAF AMD
KONP 060324Z 0603/0624 22015G25KT 3SM -SHRA BR BKN004 OVC015
     FM060400 22013KT 5SM -SHRA BR SCT012 BKN025 OVC040
     FM060500 23010KT P6SM -SHRA SCT025 BKN040
     FM060800 23005KT P6SM -SHRA SCT025 BKN040
     FM061200 10003KT 3SM BR VCSH FEW002 BKN025=



000
FTUS46 KPQR 060324 AAB
TAFONP
TAF AMD
KONP 060324Z 0603/0624 22015G25KT 3SM -SHRA BR BKN004 OVC015
     FM060400 22013KT 5SM -SHRA BR SCT012 BKN025 OVC040
     FM060500 23010KT P6SM -SHRA SCT025 BKN040
     FM060800 23005KT P6SM -SHRA SCT025 BKN040
     FM061200 10003KT 3SM BR VCSH FEW002 BKN025=



000
FTUS46 KPQR 060204 AAA
TAFTTD
TAF AMD
KTTD 060204Z 0602/0624 21014G24KT P6SM -SHRA SCT025 OVC045
     FM060400 24010KT P6SM -SHRA SCT025 BKN040 BKN060
     FM060800 24005KT P6SM -SHRA SCT025 BKN045
     FM061700 VRB03KT P6SM BKN025
     FM061900 VRB03KT P6SM SCT025=



000
FTUS46 KPQR 060203 AAA
TAFPDX
TAF AMD
KPDX 060203Z 0602/0624 21014G22KT P6SM -SHRA SCT030 BKN045 OVC060
     FM060400 24010KT P6SM -SHRA SCT025 BKN040 BKN060
     FM061700 VRB03KT P6SM BKN025
     FM061900 VRB03KT P6SM SCT025=



000
FTUS46 KPQR 060203 AAA
TAFPDX
TAF AMD
KPDX 060203Z 0602/0624 21014G22KT P6SM -SHRA SCT030 BKN045 OVC060
     FM060400 24010KT P6SM -SHRA SCT025 BKN040 BKN060
     FM061700 VRB03KT P6SM BKN025
     FM061900 VRB03KT P6SM SCT025=



000
FTUS46 KPQR 060203 AAA
TAFPDX
TAF AMD
KPDX 060203Z 0602/0624 21014G22KT P6SM -SHRA SCT030 BKN045 OVC060
     FM060400 24010KT P6SM -SHRA SCT025 BKN040 BKN060
     FM061700 VRB03KT P6SM BKN025
     FM061900 VRB03KT P6SM SCT025=



000
FTUS46 KPQR 060201 AAA
TAFONP
TAF AMD
KONP 060201Z 0602/0624 24018G33KT 1 1/2SM RA BR BKN006 OVC011
     FM060300 25015G25KT 5SM -SHRA BR SCT012 BKN025 OVC040
     FM060500 23010KT P6SM -SHRA SCT025 BKN040
     FM060800 23005KT P6SM -SHRA SCT025 BKN040
     FM061200 10003KT 3SM BR VCSH FEW002 BKN025=



000
FTUS46 KPQR 060201 AAA
TAFONP
TAF AMD
KONP 060201Z 0602/0624 24018G33KT 1 1/2SM RA BR BKN006 OVC011
     FM060300 25015G25KT 5SM -SHRA BR SCT012 BKN025 OVC040
     FM060500 23010KT P6SM -SHRA SCT025 BKN040
     FM060800 23005KT P6SM -SHRA SCT025 BKN040
     FM061200 10003KT 3SM BR VCSH FEW002 BKN025=



000
FTUS46 KPQR 060201 AAA
TAFONP
TAF AMD
KONP 060201Z 0602/0624 24018G33KT 1 1/2SM RA BR BKN006 OVC011
     FM060300 25015G25KT 5SM -SHRA BR SCT012 BKN025 OVC040
     FM060500 23010KT P6SM -SHRA SCT025 BKN040
     FM060800 23005KT P6SM -SHRA SCT025 BKN040
     FM061200 10003KT 3SM BR VCSH FEW002 BKN025=



000
FTUS46 KPQR 052337
TAFPDX
TAF
KPDX 052337Z 0600/0624 18010KT 6SM -RA SCT040 OVC080
     FM060200 21010KT P6SM -RA BKN025 OVC040
     FM060400 24003KT P6SM -SHRA SCT025 BKN040
     FM061700 VRB03KT P6SM BKN025
     FM061900 VRB03KT P6SM SCT025=



000
FTUS46 KPQR 052337
TAFAST
TAF
KAST 052337Z 0600/0624 23025G35KT 2SM -RA BR SCT008 BKN015 OVC030
     FM060100 24015G25KT P6SM -SHRA SCT025 BKN040
     FM060400 25010KT P6SM -SHRA SCT025 BKN040=



000
FTUS46 KPQR 052337
TAFHIO
TAF
KHIO 052337Z 0600/0624 19010KT 6SM -RA BR SCT015 BKN030 OVC060
     FM060200 21005KT 5SM -RA BR SCT008 BKN015 OVC025
     FM060400 24003KT 3SM -SHRA BR FEW004 SCT008 BKN025
     FM061200 VRB03KT 2SM BR VCSH FEW004 BKN008 BKN025
     FM061900 VRB03KT 6SM BR FEW008 SCT015=



000
FTUS46 KPQR 052337
TAFTTD
TAF
KTTD 052337Z 0600/0624 10010KT 6SM -RA SCT040 OVC080
     FM060200 21005KT P6SM -RA BKN025 OVC040
     FM060400 24003KT P6SM -SHRA SCT025 BKN040
     FM061700 VRB03KT P6SM BKN025
     FM061900 VRB03KT P6SM SCT025=



000
FTUS46 KPQR 052337
TAFSLE
TAF
KSLE 052337Z 0600/0624 18013G22KT 6SM -RA SCT040 OVC080
     FM060200 21010KT P6SM -RA BKN025 OVC040
     FM060400 24003KT P6SM -SHRA SCT025 BKN040
     FM061500 VRB03KT 3SM BR SCT008 BKN015
     FM061900 VRB03KT P6SM FEW015 SCT025=



000
FTUS46 KPQR 052337
TAFEUG
TAF
KEUG 052337Z 0600/0624 20013G22KT 6SM -RA SCT040 OVC080
     FM060200 21010KT P6SM -RA BKN025 OVC040
     FM060400 23005KT P6SM -SHRA SCT025 BKN040
     FM061300 VRB03KT 2SM BR SCT008 BKN012
     FM061900 VRB03KT P6SM FEW015 SCT025=



000
FTUS46 KPQR 052337
TAFONP
TAF
KONP 052337Z 0600/0624 20025G40KT 3SM SHRA SCT008 BKN015 OVC030
     FM060130 24015G25KT P6SM -SHRA SCT025 BKN040
     FM060400 23010KT P6SM -SHRA SCT025 BKN040
     FM060800 23005KT P6SM -SHRA SCT025 BKN040
     FM061200 10003KT 3SM BR VCSH FEW002 BKN025=



000
FTUS46 KPQR 052337
TAFTTD
TAF
KTTD 052337Z 0600/0624 10010KT 6SM -RA SCT040 OVC080
     FM060200 21005KT P6SM -RA BKN025 OVC040
     FM060400 24003KT P6SM -SHRA SCT025 BKN040
     FM061700 VRB03KT P6SM BKN025
     FM061900 VRB03KT P6SM SCT025=



000
FTUS46 KPQR 052337
TAFEUG
TAF
KEUG 052337Z 0600/0624 20013G22KT 6SM -RA SCT040 OVC080
     FM060200 21010KT P6SM -RA BKN025 OVC040
     FM060400 23005KT P6SM -SHRA SCT025 BKN040
     FM061300 VRB03KT 2SM BR SCT008 BKN012
     FM061900 VRB03KT P6SM FEW015 SCT025=



000
FTUS46 KPQR 052337
TAFONP
TAF
KONP 052337Z 0600/0624 20025G40KT 3SM SHRA SCT008 BKN015 OVC030
     FM060130 24015G25KT P6SM -SHRA SCT025 BKN040
     FM060400 23010KT P6SM -SHRA SCT025 BKN040
     FM060800 23005KT P6SM -SHRA SCT025 BKN040
     FM061200 10003KT 3SM BR VCSH FEW002 BKN025=



000
FTUS46 KPQR 052337
TAFEUG
TAF
KEUG 052337Z 0600/0624 20013G22KT 6SM -RA SCT040 OVC080
     FM060200 21010KT P6SM -RA BKN025 OVC040
     FM060400 23005KT P6SM -SHRA SCT025 BKN040
     FM061300 VRB03KT 2SM BR SCT008 BKN012
     FM061900 VRB03KT P6SM FEW015 SCT025=



000
FTUS46 KPQR 052337
TAFPDX
TAF
KPDX 052337Z 0600/0624 18010KT 6SM -RA SCT040 OVC080
     FM060200 21010KT P6SM -RA BKN025 OVC040
     FM060400 24003KT P6SM -SHRA SCT025 BKN040
     FM061700 VRB03KT P6SM BKN025
     FM061900 VRB03KT P6SM SCT025=



000
FTUS46 KPQR 052337
TAFONP
TAF
KONP 052337Z 0600/0624 20025G40KT 3SM SHRA SCT008 BKN015 OVC030
     FM060130 24015G25KT P6SM -SHRA SCT025 BKN040
     FM060400 23010KT P6SM -SHRA SCT025 BKN040
     FM060800 23005KT P6SM -SHRA SCT025 BKN040
     FM061200 10003KT 3SM BR VCSH FEW002 BKN025=



000
FTUS46 KPQR 052337
TAFAST
TAF
KAST 052337Z 0600/0624 23025G35KT 2SM -RA BR SCT008 BKN015 OVC030
     FM060100 24015G25KT P6SM -SHRA SCT025 BKN040
     FM060400 25010KT P6SM -SHRA SCT025 BKN040=



000
FTUS46 KPQR 052337
TAFHIO
TAF
KHIO 052337Z 0600/0624 19010KT 6SM -RA BR SCT015 BKN030 OVC060
     FM060200 21005KT 5SM -RA BR SCT008 BKN015 OVC025
     FM060400 24003KT 3SM -SHRA BR FEW004 SCT008 BKN025
     FM061200 VRB03KT 2SM BR VCSH FEW004 BKN008 BKN025
     FM061900 VRB03KT 6SM BR FEW008 SCT015=



000
FTUS46 KPQR 052337
TAFSLE
TAF
KSLE 052337Z 0600/0624 18013G22KT 6SM -RA SCT040 OVC080
     FM060200 21010KT P6SM -RA BKN025 OVC040
     FM060400 24003KT P6SM -SHRA SCT025 BKN040
     FM061500 VRB03KT 3SM BR SCT008 BKN015
     FM061900 VRB03KT P6SM FEW015 SCT025=



000
FTUS46 KPQR 052337
TAFHIO
TAF
KHIO 052337Z 0600/0624 19010KT 6SM -RA BR SCT015 BKN030 OVC060
     FM060200 21005KT 5SM -RA BR SCT008 BKN015 OVC025
     FM060400 24003KT 3SM -SHRA BR FEW004 SCT008 BKN025
     FM061200 VRB03KT 2SM BR VCSH FEW004 BKN008 BKN025
     FM061900 VRB03KT 6SM BR FEW008 SCT015=



000
FTUS46 KPQR 052337
TAFSLE
TAF
KSLE 052337Z 0600/0624 18013G22KT 6SM -RA SCT040 OVC080
     FM060200 21010KT P6SM -RA BKN025 OVC040
     FM060400 24003KT P6SM -SHRA SCT025 BKN040
     FM061500 VRB03KT 3SM BR SCT008 BKN015
     FM061900 VRB03KT P6SM FEW015 SCT025=



000
FTUS46 KPQR 052337
TAFTTD
TAF
KTTD 052337Z 0600/0624 10010KT 6SM -RA SCT040 OVC080
     FM060200 21005KT P6SM -RA BKN025 OVC040
     FM060400 24003KT P6SM -SHRA SCT025 BKN040
     FM061700 VRB03KT P6SM BKN025
     FM061900 VRB03KT P6SM SCT025=



000
FTUS46 KPQR 052337
TAFPDX
TAF
KPDX 052337Z 0600/0624 18010KT 6SM -RA SCT040 OVC080
     FM060200 21010KT P6SM -RA BKN025 OVC040
     FM060400 24003KT P6SM -SHRA SCT025 BKN040
     FM061700 VRB03KT P6SM BKN025
     FM061900 VRB03KT P6SM SCT025=



000
FTUS46 KPQR 052337
TAFAST
TAF
KAST 052337Z 0600/0624 23025G35KT 2SM -RA BR SCT008 BKN015 OVC030
     FM060100 24015G25KT P6SM -SHRA SCT025 BKN040
     FM060400 25010KT P6SM -SHRA SCT025 BKN040=



000
FTUS46 KPQR 052049 AAA
TAFPDX
TAF AMD
KPDX 052049Z 0521/0618 12008KT P6SM OVC120
     FM052300 16007KT P6SM VCSH SCT060 OVC100
     FM060000 18010KT 6SM -RA SCT040 OVC080
     FM060200 21010KT P6SM -RA BKN025 OVC040
     FM060400 24003KT P6SM -SHRA SCT025 BKN040=



000
FTUS46 KPQR 051944 AAA
TAFHIO
TAF AMD
KHIO 051944Z 0520/0618 VRB04KT P6SM FEW008 OVC120
     FM060000 19010KT 6SM -RA BR SCT015 BKN030 OVC060
     FM060200 21005KT 5SM -RA BR SCT008 BKN015 OVC025
     FM060400 24003KT 3SM -SHRA BR FEW004 BKN025=



000
FTUS46 KPQR 051944 AAA
TAFHIO
TAF AMD
KHIO 051944Z 0520/0618 VRB04KT P6SM FEW008 OVC120
     FM060000 19010KT 6SM -RA BR SCT015 BKN030 OVC060
     FM060200 21005KT 5SM -RA BR SCT008 BKN015 OVC025
     FM060400 24003KT 3SM -SHRA BR FEW004 BKN025=



000
FTUS46 KPQR 051944 AAA
TAFHIO
TAF AMD
KHIO 051944Z 0520/0618 VRB04KT P6SM FEW008 OVC120
     FM060000 19010KT 6SM -RA BR SCT015 BKN030 OVC060
     FM060200 21005KT 5SM -RA BR SCT008 BKN015 OVC025
     FM060400 24003KT 3SM -SHRA BR FEW004 BKN025=



000
FTUS46 KPQR 051732
TAFONP
TAF
KONP 051732Z 0518/0618 11005KT P6SM OVC120
     FM052000 17015G25KT P6SM SCT040 OVC080
     FM052230 20025G40KT 4SM -RA BKN025 OVC040
     FM060000 22018G35KT 3SM SHRA SCT008 BKN015 OVC030
     FM060200 25010KT P6SM -SHRA SCT025 BKN040=



000
FTUS46 KPQR 051732
TAFHIO
TAF
KHIO 051732Z 0518/0618 00000KT 1/4SM FG VV001
     FM051900 00000KT 1/2SM FG VV002
     FM052000 VRB03KT 1SM BR OVC004
     FM052100 17004KT 5SM BR SCT008 BKN150
     FM060000 19010KT 3SM -RA BR SCT008 BKN015 OVC025
     FM060200 21005KT 6SM -RA SCT008 BKN015 OVC025
     FM060400 24003KT 3SM -SHRA BR FEW004 BKN025=



000
FTUS46 KPQR 051732
TAFSLE
TAF
KSLE 051732Z 0518/0618 15005KT P6SM OVC120
     FM052300 17010KT P6SM VCSH SCT060 OVC100
     FM060000 18013G22KT 6SM -RA SCT040 OVC080
     FM060200 21010KT P6SM -RA BKN025 OVC040
     FM060400 24003KT P6SM -SHRA SCT025 BKN040=



000
FTUS46 KPQR 051732
TAFAST
TAF
KAST 051732Z 0518/0618 00000KT P6SM OVC120
     FM052000 15010KT P6SM SCT060 OVC100
     FM052100 17013G25KT P6SM SCT040 OVC080
     FM052230 18023G40KT 5SM -RA BR BKN025 OVC040
     FM060000 23015G25KT 3SM SHRA BR SCT008 BKN015 OVC030
     FM060200 24012KT P6SM -SHRA SCT025 BKN040=



000
FTUS46 KPQR 051732
TAFTTD
TAF
KTTD 051732Z 0518/0618 10012KT P6SM OVC120
     FM060000 10010KT 6SM -RA SCT040 OVC080
     FM060200 21005KT P6SM -RA BKN025 OVC040
     FM060400 24003KT P6SM -SHRA SCT025 BKN040=



000
FTUS46 KPQR 051732
TAFEUG
TAF
KEUG 051732Z 0518/0618 18010KT P6SM OVC120
     FM052300 19013KT P6SM VCSH SCT060 OVC100
     FM060000 20013G22KT 6SM -RA SCT040 OVC080
     FM060200 21010KT P6SM -RA BKN025 OVC040
     FM060400 23005KT P6SM -SHRA SCT025 BKN040=



000
FTUS46 KPQR 051732
TAFPDX
TAF
KPDX 051732Z 0518/0618 12007KT P6SM OVC120
     FM052300 16007KT P6SM VCSH SCT060 OVC100
     FM060000 18010KT 6SM -RA SCT040 OVC080
     FM060200 21010KT P6SM -RA BKN025 OVC040
     FM060400 24003KT P6SM -SHRA SCT025 BKN040=



000
FTUS46 KPQR 051732
TAFONP
TAF
KONP 051732Z 0518/0618 11005KT P6SM OVC120
     FM052000 17015G25KT P6SM SCT040 OVC080
     FM052230 20025G40KT 4SM -RA BKN025 OVC040
     FM060000 22018G35KT 3SM SHRA SCT008 BKN015 OVC030
     FM060200 25010KT P6SM -SHRA SCT025 BKN040=



000
FTUS46 KPQR 051732
TAFAST
TAF
KAST 051732Z 0518/0618 00000KT P6SM OVC120
     FM052000 15010KT P6SM SCT060 OVC100
     FM052100 17013G25KT P6SM SCT040 OVC080
     FM052230 18023G40KT 5SM -RA BR BKN025 OVC040
     FM060000 23015G25KT 3SM SHRA BR SCT008 BKN015 OVC030
     FM060200 24012KT P6SM -SHRA SCT025 BKN040=



000
FTUS46 KPQR 051732
TAFPDX
TAF
KPDX 051732Z 0518/0618 12007KT P6SM OVC120
     FM052300 16007KT P6SM VCSH SCT060 OVC100
     FM060000 18010KT 6SM -RA SCT040 OVC080
     FM060200 21010KT P6SM -RA BKN025 OVC040
     FM060400 24003KT P6SM -SHRA SCT025 BKN040=



000
FTUS46 KPQR 051732
TAFHIO
TAF
KHIO 051732Z 0518/0618 00000KT 1/4SM FG VV001
     FM051900 00000KT 1/2SM FG VV002
     FM052000 VRB03KT 1SM BR OVC004
     FM052100 17004KT 5SM BR SCT008 BKN150
     FM060000 19010KT 3SM -RA BR SCT008 BKN015 OVC025
     FM060200 21005KT 6SM -RA SCT008 BKN015 OVC025
     FM060400 24003KT 3SM -SHRA BR FEW004 BKN025=



000
FTUS46 KPQR 051732
TAFSLE
TAF
KSLE 051732Z 0518/0618 15005KT P6SM OVC120
     FM052300 17010KT P6SM VCSH SCT060 OVC100
     FM060000 18013G22KT 6SM -RA SCT040 OVC080
     FM060200 21010KT P6SM -RA BKN025 OVC040
     FM060400 24003KT P6SM -SHRA SCT025 BKN040=



000
FTUS46 KPQR 051732
TAFTTD
TAF
KTTD 051732Z 0518/0618 10012KT P6SM OVC120
     FM060000 10010KT 6SM -RA SCT040 OVC080
     FM060200 21005KT P6SM -RA BKN025 OVC040
     FM060400 24003KT P6SM -SHRA SCT025 BKN040=



000
FTUS46 KPQR 051732
TAFEUG
TAF
KEUG 051732Z 0518/0618 18010KT P6SM OVC120
     FM052300 19013KT P6SM VCSH SCT060 OVC100
     FM060000 20013G22KT 6SM -RA SCT040 OVC080
     FM060200 21010KT P6SM -RA BKN025 OVC040
     FM060400 23005KT P6SM -SHRA SCT025 BKN040=



000
FTUS46 KPQR 051731 AAB
TAFSLE
TAF AMD
KSLE 051731Z 0518/0612 15005KT P6SM OVC120
     FM052300 17010KT P6SM VCSH SCT060 OVC100
     FM060000 18013G22KT 6SM -RA SCT040 OVC080
     FM060200 21010KT P6SM -RA BKN025 OVC040
     FM060400 24003KT P6SM -SHRA SCT025 BKN040=



000
FTUS46 KPQR 051731 AAA
TAFEUG
TAF AMD
KEUG 051731Z 0518/0612 18010KT P6SM OVC120
     FM052300 19013KT P6SM VCSH SCT060 OVC100
     FM060000 20013G22KT 6SM -RA SCT040 OVC080
     FM060200 21010KT P6SM -RA BKN025 OVC040
     FM060400 23005KT P6SM -SHRA SCT025 BKN040=



000
FTUS46 KPQR 051731 AAB
TAFSLE
TAF AMD
KSLE 051731Z 0518/0612 15005KT P6SM OVC120
     FM052300 17010KT P6SM VCSH SCT060 OVC100
     FM060000 18013G22KT 6SM -RA SCT040 OVC080
     FM060200 21010KT P6SM -RA BKN025 OVC040
     FM060400 24003KT P6SM -SHRA SCT025 BKN040=



000
FTUS46 KPQR 051731 AAB
TAFSLE
TAF AMD
KSLE 051731Z 0518/0612 15005KT P6SM OVC120
     FM052300 17010KT P6SM VCSH SCT060 OVC100
     FM060000 18013G22KT 6SM -RA SCT040 OVC080
     FM060200 21010KT P6SM -RA BKN025 OVC040
     FM060400 24003KT P6SM -SHRA SCT025 BKN040=



000
FTUS46 KPQR 051729 AAA
TAFSLE
TAF AMD
KSLE 051729Z 0517/0612 15005KT P6SM OVC120
     FM052300 16007KT P6SM VCSH SCT060 OVC100
     FM060000 18010KT 6SM -RA SCT040 OVC080
     FM060200 21010KT P6SM -RA BKN025 OVC040
     FM060400 24003KT P6SM -SHRA SCT025 BKN040=



000
FTUS46 KPQR 051729 AAA
TAFSLE
TAF AMD
KSLE 051729Z 0517/0612 15005KT P6SM OVC120
     FM052300 16007KT P6SM VCSH SCT060 OVC100
     FM060000 18010KT 6SM -RA SCT040 OVC080
     FM060200 21010KT P6SM -RA BKN025 OVC040
     FM060400 24003KT P6SM -SHRA SCT025 BKN040=



000
FTUS46 KPQR 051729 AAA
TAFSLE
TAF AMD
KSLE 051729Z 0517/0612 15005KT P6SM OVC120
     FM052300 16007KT P6SM VCSH SCT060 OVC100
     FM060000 18010KT 6SM -RA SCT040 OVC080
     FM060200 21010KT P6SM -RA BKN025 OVC040
     FM060400 24003KT P6SM -SHRA SCT025 BKN040=



000
FTUS46 KPQR 051728 AAA
TAFAST
TAF AMD
KAST 051728Z 0517/0612 00000KT P6SM OVC120
     FM052000 15010KT P6SM SCT060 OVC100
     FM052100 17013G25KT P6SM SCT040 OVC080
     FM052230 18023G40KT 5SM -RA BR BKN025 OVC040
     FM060000 23015G25KT 3SM SHRA BR SCT008 BKN015 OVC030
     FM060200 24012KT P6SM -SHRA SCT025 BKN040=



000
FTUS46 KPQR 051728 AAA
TAFAST
TAF AMD
KAST 051728Z 0517/0612 00000KT P6SM OVC120
     FM052000 15010KT P6SM SCT060 OVC100
     FM052100 17013G25KT P6SM SCT040 OVC080
     FM052230 18023G40KT 5SM -RA BR BKN025 OVC040
     FM060000 23015G25KT 3SM SHRA BR SCT008 BKN015 OVC030
     FM060200 24012KT P6SM -SHRA SCT025 BKN040=



000
FTUS46 KPQR 051728 AAA
TAFAST
TAF AMD
KAST 051728Z 0517/0612 00000KT P6SM OVC120
     FM052000 15010KT P6SM SCT060 OVC100
     FM052100 17013G25KT P6SM SCT040 OVC080
     FM052230 18023G40KT 5SM -RA BR BKN025 OVC040
     FM060000 23015G25KT 3SM SHRA BR SCT008 BKN015 OVC030
     FM060200 24012KT P6SM -SHRA SCT025 BKN040=



000
FTUS46 KPQR 051725 AAA
TAFONP
TAF AMD
KONP 051725Z 0517/0612 11005KT P6SM OVC120
     FM052000 17015G25KT P6SM SCT040 OVC080
     FM052230 20025G40KT 4SM -RA BKN025 OVC040
     FM060000 22018G35KT 3SM SHRA SCT008 BKN015 OVC030
     FM060200 25010KT P6SM -SHRA SCT025 BKN040=



000
FTUS46 KPQR 051720 AAB
TAFHIO
TAF AMD
KHIO 051720Z 0517/0612 00000KT 1/4SM FG VV001
     FM051900 00000KT 1/2SM FG VV002
     FM052000 VRB03KT 1SM BR OVC004
     FM052100 17004KT 5SM BR SCT008 BKN150
     FM060000 19010KT 3SM -RA BR SCT008 BKN015 OVC025
     FM060200 21005KT 6SM -RA SCT008 BKN015 OVC025
     FM060400 24003KT 3SM -SHRA BR FEW004 BKN025=



000
FTUS46 KPQR 051720 AAB
TAFHIO
TAF AMD
KHIO 051720Z 0517/0612 00000KT 1/4SM FG VV001
     FM051900 00000KT 1/2SM FG VV002
     FM052000 VRB03KT 1SM BR OVC004
     FM052100 17004KT 5SM BR SCT008 BKN150
     FM060000 19010KT 3SM -RA BR SCT008 BKN015 OVC025
     FM060200 21005KT 6SM -RA SCT008 BKN015 OVC025
     FM060400 24003KT 3SM -SHRA BR FEW004 BKN025=



000
FTUS46 KPQR 051720 AAB
TAFHIO
TAF AMD
KHIO 051720Z 0517/0612 00000KT 1/4SM FG VV001
     FM051900 00000KT 1/2SM FG VV002
     FM052000 VRB03KT 1SM BR OVC004
     FM052100 17004KT 5SM BR SCT008 BKN150
     FM060000 19010KT 3SM -RA BR SCT008 BKN015 OVC025
     FM060200 21005KT 6SM -RA SCT008 BKN015 OVC025
     FM060400 24003KT 3SM -SHRA BR FEW004 BKN025=



000
FTUS46 KPQR 051714 AAB
TAFPDX
TAF AMD
KPDX 051714Z 0517/0612 12007KT P6SM OVC120
     FM052300 16007KT P6SM VCSH SCT060 OVC100
     FM060000 18010KT 6SM -RA SCT040 OVC080
     FM060200 21010KT P6SM -RA BKN025 OVC040
     FM060400 24003KT P6SM -SHRA SCT025 BKN040=



000
FTUS46 KPQR 051711 AAA
TAFTTD
TAF AMD
KTTD 051711Z 0517/0612 10012KT P6SM OVC120
     FM060000 10010KT 6SM -RA SCT040 OVC080
     FM060200 21005KT P6SM -RA BKN025 OVC040
     FM060400 24003KT P6SM -SHRA SCT025 BKN040=



000
FTUS46 KPQR 051624 AAA
TAFHIO
TAF AMD
KHIO 051624Z 0516/0612 00000KT 1/4SM FG VV001
     FM051800 00000KT 1/2SM FG VV002
     FM051900 VRB03KT 1SM BR OVC004
     FM052000 17004KT 5SM BR SCT008 BKN150
     FM052200 18010KT P6SM -RA SCT035 OVC070
     FM060300 20007KT P6SM -SHRA SCT025 BKN040=



000
FTUS46 KPQR 051624 AAA
TAFHIO
TAF AMD
KHIO 051624Z 0516/0612 00000KT 1/4SM FG VV001
     FM051800 00000KT 1/2SM FG VV002
     FM051900 VRB03KT 1SM BR OVC004
     FM052000 17004KT 5SM BR SCT008 BKN150
     FM052200 18010KT P6SM -RA SCT035 OVC070
     FM060300 20007KT P6SM -SHRA SCT025 BKN040=



000
FTUS46 KPQR 051452 AAA
TAFPDX
TAF AMD
KPDX 051452Z 0515/0612 13007KT P6SM BKN150
     FM052200 11011KT P6SM -RA SCT035 OVC070
     FM060300 20009KT P6SM -SHRA SCT025 BKN040=



000
FTUS46 KPQR 051452 AAA
TAFPDX
TAF AMD
KPDX 051452Z 0515/0612 13007KT P6SM BKN150
     FM052200 11011KT P6SM -RA SCT035 OVC070
     FM060300 20009KT P6SM -SHRA SCT025 BKN040=



000
FTUS46 KPQR 051452 AAA
TAFPDX
TAF AMD
KPDX 051452Z 0515/0612 13007KT P6SM BKN150
     FM052200 11011KT P6SM -RA SCT035 OVC070
     FM060300 20009KT P6SM -SHRA SCT025 BKN040=



000
FTUS46 KPQR 051149
TAFSLE
TAF
KSLE 051149Z 0512/0612 17007KT P6SM BKN150
     FM052200 17012KT P6SM -RA SCT040 OVC070
     FM060300 19008KT P6SM -SHRA SCT025 BKN035=



000
FTUS46 KPQR 051149
TAFAST
TAF
KAST 051149Z 0512/0612 16012KT P6SM BKN120
     FM052100 18018G30KT 5SM -RA BKN022 OVC040
     FM060000 23015G25KT 3SM SHRA BKN025 OVC035
     FM060300 24012KT P6SM -SHRA SCT020 BKN045=



000
FTUS46 KPQR 051149
TAFEUG
TAF
KEUG 051149Z 0512/0612 18006KT P6SM BKN150
     FM052200 18012KT P6SM -RA SCT040 OVC070
     FM060400 19007KT P6SM -SHRA SCT025 BKN035=



000
FTUS46 KPQR 051149
TAFTTD
TAF
KTTD 051149Z 0512/0612 09015G25KT P6SM BKN150
     FM051500 09015G25KT P6SM OVC120
     FM052200 10015G25KT P6SM -RA SCT035 OVC070
     FM060300 23004KT P6SM -SHRA SCT025 BKN035=



000
FTUS46 KPQR 051149
TAFEUG
TAF
KEUG 051149Z 0512/0612 18006KT P6SM BKN150
     FM052200 18012KT P6SM -RA SCT040 OVC070
     FM060400 19007KT P6SM -SHRA SCT025 BKN035=



000
FTUS46 KPQR 051149
TAFPDX
TAF
KPDX 051149Z 0512/0612 11009KT P6SM BKN150
     FM052200 11011KT P6SM -RA SCT035 OVC070
     FM060300 20009KT P6SM -SHRA SCT025 BKN040=



000
FTUS46 KPQR 051149
TAFAST
TAF
KAST 051149Z 0512/0612 16012KT P6SM BKN120
     FM052100 18018G30KT 5SM -RA BKN022 OVC040
     FM060000 23015G25KT 3SM SHRA BKN025 OVC035
     FM060300 24012KT P6SM -SHRA SCT020 BKN045=



000
FTUS46 KPQR 051149
TAFSLE
TAF
KSLE 051149Z 0512/0612 17007KT P6SM BKN150
     FM052200 17012KT P6SM -RA SCT040 OVC070
     FM060300 19008KT P6SM -SHRA SCT025 BKN035=



000
FTUS46 KPQR 051149
TAFEUG
TAF
KEUG 051149Z 0512/0612 18006KT P6SM BKN150
     FM052200 18012KT P6SM -RA SCT040 OVC070
     FM060400 19007KT P6SM -SHRA SCT025 BKN035=



000
FTUS46 KPQR 051149
TAFTTD
TAF
KTTD 051149Z 0512/0612 09015G25KT P6SM BKN150
     FM051500 09015G25KT P6SM OVC120
     FM052200 10015G25KT P6SM -RA SCT035 OVC070
     FM060300 23004KT P6SM -SHRA SCT025 BKN035=



000
FTUS46 KPQR 051149
TAFHIO
TAF
KHIO 051149Z 0512/0612 VRB02KT 1/2SM FG OVC002
      TEMPO 0514/0518 2SM BR OVC004
     FM051800 17004KT 5SM BR SCT008 BKN150
     FM052200 18010KT P6SM -RA SCT035 OVC070
     FM060300 20007KT P6SM -SHRA SCT025 BKN040=



000
FTUS46 KPQR 051149
TAFONP
TAF
KONP 051149Z 0512/0612 16016G25KT P6SM BKN120
     FM052100 20025G40KT 4SM -RA BKN020 OVC040
     FM060100 22018G35KT 3SM SHRA BKN015 OVC035
     FM060300 23010KT P6SM -SHRA SCT015 BKN040=



000
FTUS46 KPQR 051149
TAFPDX
TAF
KPDX 051149Z 0512/0612 11009KT P6SM BKN150
     FM052200 11011KT P6SM -RA SCT035 OVC070
     FM060300 20009KT P6SM -SHRA SCT025 BKN040=



000
FTUS46 KPQR 051149
TAFSLE
TAF
KSLE 051149Z 0512/0612 17007KT P6SM BKN150
     FM052200 17012KT P6SM -RA SCT040 OVC070
     FM060300 19008KT P6SM -SHRA SCT025 BKN035=



000
FTUS46 KPQR 051149
TAFONP
TAF
KONP 051149Z 0512/0612 16016G25KT P6SM BKN120
     FM052100 20025G40KT 4SM -RA BKN020 OVC040
     FM060100 22018G35KT 3SM SHRA BKN015 OVC035
     FM060300 23010KT P6SM -SHRA SCT015 BKN040=



000
FTUS46 KPQR 051149
TAFHIO
TAF
KHIO 051149Z 0512/0612 VRB02KT 1/2SM FG OVC002
      TEMPO 0514/0518 2SM BR OVC004
     FM051800 17004KT 5SM BR SCT008 BKN150
     FM052200 18010KT P6SM -RA SCT035 OVC070
     FM060300 20007KT P6SM -SHRA SCT025 BKN040=



000
FTUS46 KPQR 051149
TAFAST
TAF
KAST 051149Z 0512/0612 16012KT P6SM BKN120
     FM052100 18018G30KT 5SM -RA BKN022 OVC040
     FM060000 23015G25KT 3SM SHRA BKN025 OVC035
     FM060300 24012KT P6SM -SHRA SCT020 BKN045=



000
FTUS46 KPQR 051149
TAFTTD
TAF
KTTD 051149Z 0512/0612 09015G25KT P6SM BKN150
     FM051500 09015G25KT P6SM OVC120
     FM052200 10015G25KT P6SM -RA SCT035 OVC070
     FM060300 23004KT P6SM -SHRA SCT025 BKN035=



000
FTUS46 KPQR 051149
TAFONP
TAF
KONP 051149Z 0512/0612 16016G25KT P6SM BKN120
     FM052100 20025G40KT 4SM -RA BKN020 OVC040
     FM060100 22018G35KT 3SM SHRA BKN015 OVC035
     FM060300 23010KT P6SM -SHRA SCT015 BKN040=



000
FTUS46 KPQR 051149
TAFHIO
TAF
KHIO 051149Z 0512/0612 VRB02KT 1/2SM FG OVC002
      TEMPO 0514/0518 2SM BR OVC004
     FM051800 17004KT 5SM BR SCT008 BKN150
     FM052200 18010KT P6SM -RA SCT035 OVC070
     FM060300 20007KT P6SM -SHRA SCT025 BKN040=



000
FTUS46 KPQR 051149
TAFPDX
TAF
KPDX 051149Z 0512/0612 11009KT P6SM BKN150
     FM052200 11011KT P6SM -RA SCT035 OVC070
     FM060300 20009KT P6SM -SHRA SCT025 BKN040=



000
FTUS46 KPQR 050905 AAA
TAFPDX
TAF AMD
KPDX 050905Z 0509/0606 10008KT P6SM BKN200
     FM051500 11013KT P6SM OVC120
     FM052100 11013KT P6SM -RA OVC050
     FM060300 20015G25KT 6SM RA BKN025 OVC035=



000
FTUS46 KPQR 050905 AAA
TAFPDX
TAF AMD
KPDX 050905Z 0509/0606 10008KT P6SM BKN200
     FM051500 11013KT P6SM OVC120
     FM052100 11013KT P6SM -RA OVC050
     FM060300 20015G25KT 6SM RA BKN025 OVC035=



000
FTUS46 KPQR 050530
TAFHIO
TAF
KHIO 050530Z 0506/0606 10004KT P6SM OVC200
     FM050900 12003KT 4SM BR SCT005 OVC150
     FM051500 VRB02KT P6SM OVC120
     FM052100 15006KT P6SM -RA OVC050
     FM060200 20015G25KT 5SM RA BR BKN018 OVC030=



000
FTUS46 KPQR 050530
TAFPDX
TAF
KPDX 050530Z 0506/0606 11008KT P6SM OVC200
     FM051500 11013KT P6SM OVC120
     FM052100 11013KT P6SM -RA OVC050
     FM060300 20015G25KT 6SM RA BKN025 OVC035=



000
FTUS46 KPQR 050530
TAFEUG
TAF
KEUG 050530Z 0506/0606 17005KT P6SM BKN200
     FM051300 15004KT 3SM BR SCT005 BKN120
     FM051600 16005KT P6SM OVC120
     FM052200 16008KT P6SM -RA OVC050
     FM060300 19014G24KT 5SM RA BR BKN025 OVC035=



000
FTUS46 KPQR 050530
TAFTTD
TAF
KTTD 050530Z 0506/0606 09010KT P6SM OVC200
     FM051500 09015G25KT P6SM OVC120
     FM052200 10015G25KT P6SM -RA OVC050
     FM060400 20014G22KT 5SM RA BR BKN025 OVC035=



000
FTUS46 KPQR 050530
TAFAST
TAF
KAST 050530Z 0506/0606 10005KT P6SM BKN200
     FM051200 14008KT P6SM OVC100
     FM051800 15012G20KT P6SM -RA OVC040
     FM052100 16015G25KT 4SM -RA BR BKN022 OVC035
     FM060000 20025G40KT 3SM RA BR BKN015 OVC025
     FM060400 23018G30KT P6SM -SHRA SCT020 BKN045=



000
FTUS46 KPQR 050530
TAFONP
TAF
KONP 050530Z 0506/0606 11006KT P6SM BKN200
     FM051300 12009KT P6SM OVC100
     FM051800 15015G25KT P6SM -RA OVC040
     FM052200 18028G42KT 3SM RA BR BKN015 OVC025
     FM060100 21022G35KT 2SM RA BR BKN008 OVC015
     FM060300 25015G25KT P6SM -SHRA SCT015 BKN035=



000
FTUS46 KPQR 050530
TAFSLE
TAF
KSLE 050530Z 0506/0606 16005KT P6SM BKN200
     FM051500 16006KT P6SM OVC120
     FM052200 17010KT P6SM -RA OVC050
     FM060300 19015G25KT 6SM RA BKN025 OVC035=



    US Dept of Commerce
    National Oceanic and Atmospheric Administration
    National Weather Service
    1325 East West Highway
    Silver Spring, MD 20910
    Page Author: NWS Internet Services Team
Disclaimer
Information Quality
Credits
Glossary
Privacy Policy
Freedom of Information Act (FOIA)
About Us
Career Opportunities